sensor_id;sensor_type;location;lat;lon;timestamp;P1;durP1;ratioP1;P2;durP2;ratioP2
4831;SDS011;2430;51.322;7.864;2023-03-03T00:00:29;25.53;;;13.03;;
4831;SDS011;2430;51.322;7.864;2023-03-03T00:02:56;20.27;;;13.50;;
4831;SDS011;2430;51.322;7.864;2023-03-03T00:05:26;25.57;;;12.93;;
4831;SDS011;2430;51.322;7.864;2023-03-03T00:07:53;27.57;;;14.70;;
4831;SDS011;2430;51.322;7.864;2023-03-03T00:10:19;21.20;;;14.07;;
4831;SDS011;2430;51.322;7.864;2023-03-03T00:12:46;29.93;;;14.33;;
4831;SDS011;2430;51.322;7.864;2023-03-03T00:15:14;26.17;;;13.80;;
4831;SDS011;2430;51.322;7.864;2023-03-03T00:17:40;19.90;;;13.20;;
4831;SDS011;2430;51.322;7.864;2023-03-03T00:20:21;27.93;;;14.43;;
4831;SDS011;2430;51.322;7.864;2023-03-03T00:22:53;21.87;;;13.90;;
4831;SDS011;2430;51.322;7.864;2023-03-03T00:25:26;28.83;;;15.07;;
4831;SDS011;2430;51.322;7.864;2023-03-03T00:27:53;26.73;;;13.53;;
4831;SDS011;2430;51.322;7.864;2023-03-03T00:30:22;29.10;;;14.40;;
4831;SDS011;2430;51.322;7.864;2023-03-03T00:32:55;25.00;;;13.23;;
4831;SDS011;2430;51.322;7.864;2023-03-03T00:35:23;26.60;;;14.73;;
4831;SDS011;2430;51.322;7.864;2023-03-03T00:37:50;23.37;;;12.80;;
4831;SDS011;2430;51.322;7.864;2023-03-03T00:40:21;33.23;;;15.73;;
4831;SDS011;2430;51.322;7.864;2023-03-03T00:42:49;21.63;;;13.27;;
4831;SDS011;2430;51.322;7.864;2023-03-03T00:45:20;26.27;;;13.87;;
4831;SDS011;2430;51.322;7.864;2023-03-03T00:47:49;32.13;;;16.67;;
4831;SDS011;2430;51.322;7.864;2023-03-03T00:53:00;22.43;;;13.23;;
4831;SDS011;2430;51.322;7.864;2023-03-03T00:55:28;47.30;;;12.70;;
4831;SDS011;2430;51.322;7.864;2023-03-03T00:57:55;20.73;;;13.17;;
4831;SDS011;2430;51.322;7.864;2023-03-03T01:00:21;22.77;;;14.53;;
4831;SDS011;2430;51.322;7.864;2023-03-03T01:02:48;28.33;;;14.03;;
4831;SDS011;2430;51.322;7.864;2023-03-03T01:05:16;26.67;;;14.40;;
4831;SDS011;2430;51.322;7.864;2023-03-03T01:07:42;23.43;;;13.60;;
4831;SDS011;2430;51.322;7.864;2023-03-03T01:10:10;27.23;;;13.27;;
4831;SDS011;2430;51.322;7.864;2023-03-03T01:12:38;25.53;;;13.90;;
4831;SDS011;2430;51.322;7.864;2023-03-03T01:15:06;19.80;;;12.17;;
4831;SDS011;2430;51.322;7.864;2023-03-03T01:17:33;26.50;;;12.97;;
4831;SDS011;2430;51.322;7.864;2023-03-03T01:19:59;29.57;;;14.80;;
4831;SDS011;2430;51.322;7.864;2023-03-03T01:22:26;31.50;;;15.50;;
4831;SDS011;2430;51.322;7.864;2023-03-03T01:24:52;21.50;;;12.30;;
4831;SDS011;2430;51.322;7.864;2023-03-03T01:27:19;22.80;;;13.87;;
4831;SDS011;2430;51.322;7.864;2023-03-03T01:29:47;22.10;;;12.80;;
4831;SDS011;2430;51.322;7.864;2023-03-03T01:32:14;30.00;;;14.77;;
4831;SDS011;2430;51.322;7.864;2023-03-03T01:34:41;20.47;;;12.87;;
4831;SDS011;2430;51.322;7.864;2023-03-03T01:37:08;20.70;;;11.97;;
4831;SDS011;2430;51.322;7.864;2023-03-03T01:39:34;19.90;;;12.90;;
4831;SDS011;2430;51.322;7.864;2023-03-03T01:42:01;22.53;;;12.73;;
4831;SDS011;2430;51.322;7.864;2023-03-03T01:44:28;25.50;;;13.20;;
4831;SDS011;2430;51.322;7.864;2023-03-03T01:46:57;21.63;;;11.30;;
4831;SDS011;2430;51.322;7.864;2023-03-03T01:49:25;23.30;;;12.97;;
4831;SDS011;2430;51.322;7.864;2023-03-03T01:51:53;25.37;;;12.90;;
4831;SDS011;2430;51.322;7.864;2023-03-03T01:54:22;34.87;;;14.33;;
4831;SDS011;2430;51.322;7.864;2023-03-03T01:56:49;28.67;;;14.50;;
4831;SDS011;2430;51.322;7.864;2023-03-03T01:59:17;22.83;;;13.63;;
4831;SDS011;2430;51.322;7.864;2023-03-03T02:01:46;27.70;;;12.73;;
4831;SDS011;2430;51.322;7.864;2023-03-03T02:04:17;27.17;;;13.67;;
4831;SDS011;2430;51.322;7.864;2023-03-03T02:06:46;22.00;;;13.23;;
4831;SDS011;2430;51.322;7.864;2023-03-03T02:09:15;23.00;;;12.00;;
4831;SDS011;2430;51.322;7.864;2023-03-03T02:11:44;19.93;;;11.97;;
4831;SDS011;2430;51.322;7.864;2023-03-03T02:14:17;25.13;;;13.83;;
4831;SDS011;2430;51.322;7.864;2023-03-03T02:16:44;21.60;;;11.87;;
4831;SDS011;2430;51.322;7.864;2023-03-03T02:19:12;20.83;;;11.77;;
4831;SDS011;2430;51.322;7.864;2023-03-03T02:21:43;19.63;;;12.00;;
4831;SDS011;2430;51.322;7.864;2023-03-03T02:24:12;22.10;;;12.63;;
4831;SDS011;2430;51.322;7.864;2023-03-03T02:26:42;19.43;;;10.77;;
4831;SDS011;2430;51.322;7.864;2023-03-03T02:29:10;28.17;;;13.10;;
4831;SDS011;2430;51.322;7.864;2023-03-03T02:31:37;16.57;;;10.13;;
4831;SDS011;2430;51.322;7.864;2023-03-03T02:34:03;24.83;;;11.97;;
4831;SDS011;2430;51.322;7.864;2023-03-03T02:36:31;20.63;;;11.87;;
4831;SDS011;2430;51.322;7.864;2023-03-03T02:38:59;21.70;;;11.67;;
4831;SDS011;2430;51.322;7.864;2023-03-03T02:41:29;21.10;;;12.10;;
4831;SDS011;2430;51.322;7.864;2023-03-03T02:44:01;25.10;;;12.70;;
4831;SDS011;2430;51.322;7.864;2023-03-03T02:46:28;23.87;;;12.97;;
4831;SDS011;2430;51.322;7.864;2023-03-03T02:48:57;22.70;;;13.33;;
4831;SDS011;2430;51.322;7.864;2023-03-03T02:51:24;22.70;;;12.40;;
4831;SDS011;2430;51.322;7.864;2023-03-03T02:53:56;23.77;;;12.00;;
4831;SDS011;2430;51.322;7.864;2023-03-03T02:56:23;22.57;;;12.43;;
4831;SDS011;2430;51.322;7.864;2023-03-03T02:58:50;22.93;;;10.80;;
4831;SDS011;2430;51.322;7.864;2023-03-03T03:01:18;17.13;;;10.90;;
4831;SDS011;2430;51.322;7.864;2023-03-03T03:03:45;23.50;;;11.27;;
4831;SDS011;2430;51.322;7.864;2023-03-03T03:06:12;19.00;;;9.60;;
4831;SDS011;2430;51.322;7.864;2023-03-03T03:08:39;21.90;;;12.90;;
4831;SDS011;2430;51.322;7.864;2023-03-03T03:11:06;21.97;;;10.40;;
4831;SDS011;2430;51.322;7.864;2023-03-03T03:13:33;21.97;;;12.17;;
4831;SDS011;2430;51.322;7.864;2023-03-03T03:16:00;19.90;;;10.70;;
4831;SDS011;2430;51.322;7.864;2023-03-03T03:18:28;19.73;;;10.37;;
4831;SDS011;2430;51.322;7.864;2023-03-03T03:20:55;23.20;;;12.90;;
4831;SDS011;2430;51.322;7.864;2023-03-03T03:23:22;14.10;;;10.10;;
4831;SDS011;2430;51.322;7.864;2023-03-03T03:25:48;23.03;;;11.37;;
4831;SDS011;2430;51.322;7.864;2023-03-03T03:28:15;24.47;;;11.50;;
4831;SDS011;2430;51.322;7.864;2023-03-03T03:30:43;22.93;;;12.57;;
4831;SDS011;2430;51.322;7.864;2023-03-03T03:33:10;23.03;;;12.47;;
4831;SDS011;2430;51.322;7.864;2023-03-03T03:35:38;23.20;;;11.50;;
4831;SDS011;2430;51.322;7.864;2023-03-03T03:38:09;18.70;;;11.20;;
4831;SDS011;2430;51.322;7.864;2023-03-03T03:40:36;22.67;;;13.10;;
4831;SDS011;2430;51.322;7.864;2023-03-03T03:43:03;31.87;;;12.50;;
4831;SDS011;2430;51.322;7.864;2023-03-03T03:45:30;23.60;;;11.30;;
4831;SDS011;2430;51.322;7.864;2023-03-03T03:47:56;17.13;;;10.90;;
4831;SDS011;2430;51.322;7.864;2023-03-03T03:50:23;19.80;;;11.30;;
4831;SDS011;2430;51.322;7.864;2023-03-03T03:52:51;18.47;;;10.53;;
4831;SDS011;2430;51.322;7.864;2023-03-03T03:55:18;20.93;;;10.57;;
4831;SDS011;2430;51.322;7.864;2023-03-03T03:57:46;27.17;;;12.10;;
4831;SDS011;2430;51.322;7.864;2023-03-03T04:00:13;21.50;;;12.17;;
4831;SDS011;2430;51.322;7.864;2023-03-03T04:02:40;19.50;;;11.00;;
4831;SDS011;2430;51.322;7.864;2023-03-03T04:05:10;21.73;;;11.03;;
4831;SDS011;2430;51.322;7.864;2023-03-03T04:07:43;24.80;;;11.93;;
4831;SDS011;2430;51.322;7.864;2023-03-03T04:10:11;20.50;;;11.80;;
4831;SDS011;2430;51.322;7.864;2023-03-03T04:12:37;24.00;;;12.67;;
4831;SDS011;2430;51.322;7.864;2023-03-03T04:15:05;21.40;;;12.33;;
4831;SDS011;2430;51.322;7.864;2023-03-03T04:17:32;19.60;;;11.07;;
4831;SDS011;2430;51.322;7.864;2023-03-03T04:19:59;33.00;;;11.50;;
4831;SDS011;2430;51.322;7.864;2023-03-03T04:22:26;18.50;;;11.63;;
4831;SDS011;2430;51.322;7.864;2023-03-03T04:24:53;16.27;;;11.50;;
4831;SDS011;2430;51.322;7.864;2023-03-03T04:27:22;18.07;;;9.83;;
4831;SDS011;2430;51.322;7.864;2023-03-03T04:29:48;15.23;;;10.00;;
4831;SDS011;2430;51.322;7.864;2023-03-03T04:32:15;73.63;;;10.07;;
4831;SDS011;2430;51.322;7.864;2023-03-03T04:34:43;26.27;;;11.67;;
4831;SDS011;2430;51.322;7.864;2023-03-03T04:37:10;21.23;;;11.40;;
4831;SDS011;2430;51.322;7.864;2023-03-03T04:39:36;18.37;;;8.70;;
4831;SDS011;2430;51.322;7.864;2023-03-03T04:42:02;56.50;;;11.40;;
4831;SDS011;2430;51.322;7.864;2023-03-03T04:44:30;25.03;;;10.60;;
4831;SDS011;2430;51.322;7.864;2023-03-03T04:46:58;19.50;;;10.60;;
4831;SDS011;2430;51.322;7.864;2023-03-03T04:49:24;14.40;;;9.90;;
4831;SDS011;2430;51.322;7.864;2023-03-03T04:51:51;15.63;;;9.40;;
4831;SDS011;2430;51.322;7.864;2023-03-03T04:54:17;28.63;;;10.10;;
4831;SDS011;2430;51.322;7.864;2023-03-03T04:56:44;18.40;;;8.97;;
4831;SDS011;2430;51.322;7.864;2023-03-03T04:59:10;20.63;;;10.70;;
4831;SDS011;2430;51.322;7.864;2023-03-03T05:01:39;16.63;;;9.00;;
4831;SDS011;2430;51.322;7.864;2023-03-03T05:04:06;17.77;;;8.87;;
4831;SDS011;2430;51.322;7.864;2023-03-03T05:06:32;15.70;;;9.10;;
4831;SDS011;2430;51.322;7.864;2023-03-03T05:08:59;19.40;;;9.70;;
4831;SDS011;2430;51.322;7.864;2023-03-03T05:11:26;16.83;;;9.23;;
4831;SDS011;2430;51.322;7.864;2023-03-03T05:13:53;20.80;;;9.80;;
4831;SDS011;2430;51.322;7.864;2023-03-03T05:16:20;19.67;;;9.50;;
4831;SDS011;2430;51.322;7.864;2023-03-03T05:18:49;20.53;;;9.50;;
4831;SDS011;2430;51.322;7.864;2023-03-03T05:21:16;19.57;;;9.47;;
4831;SDS011;2430;51.322;7.864;2023-03-03T05:23:43;16.23;;;9.67;;
4831;SDS011;2430;51.322;7.864;2023-03-03T05:26:09;20.10;;;8.77;;
4831;SDS011;2430;51.322;7.864;2023-03-03T05:28:36;17.60;;;8.60;;
4831;SDS011;2430;51.322;7.864;2023-03-03T05:31:03;15.93;;;9.27;;
4831;SDS011;2430;51.322;7.864;2023-03-03T05:33:30;19.13;;;10.27;;
4831;SDS011;2430;51.322;7.864;2023-03-03T05:35:58;19.20;;;9.57;;
4831;SDS011;2430;51.322;7.864;2023-03-03T05:38:25;17.83;;;9.83;;
4831;SDS011;2430;51.322;7.864;2023-03-03T05:40:52;16.60;;;9.40;;
4831;SDS011;2430;51.322;7.864;2023-03-03T05:43:19;17.17;;;10.23;;
4831;SDS011;2430;51.322;7.864;2023-03-03T05:45:46;22.27;;;10.47;;
4831;SDS011;2430;51.322;7.864;2023-03-03T05:48:13;21.83;;;10.60;;
4831;SDS011;2430;51.322;7.864;2023-03-03T05:50:39;18.30;;;9.60;;
4831;SDS011;2430;51.322;7.864;2023-03-03T05:53:08;19.80;;;9.40;;
4831;SDS011;2430;51.322;7.864;2023-03-03T05:55:34;19.97;;;10.67;;
4831;SDS011;2430;51.322;7.864;2023-03-03T05:58:01;16.77;;;9.80;;
4831;SDS011;2430;51.322;7.864;2023-03-03T06:00:28;18.80;;;9.90;;
4831;SDS011;2430;51.322;7.864;2023-03-03T06:02:54;22.93;;;10.33;;
4831;SDS011;2430;51.322;7.864;2023-03-03T06:05:21;13.23;;;8.77;;
4831;SDS011;2430;51.322;7.864;2023-03-03T06:07:48;22.40;;;10.50;;
4831;SDS011;2430;51.322;7.864;2023-03-03T06:10:16;16.57;;;9.50;;
4831;SDS011;2430;51.322;7.864;2023-03-03T06:12:43;19.87;;;11.00;;
4831;SDS011;2430;51.322;7.864;2023-03-03T06:15:10;14.23;;;9.43;;
4831;SDS011;2430;51.322;7.864;2023-03-03T06:17:37;18.00;;;11.37;;
4831;SDS011;2430;51.322;7.864;2023-03-03T06:20:05;21.63;;;9.50;;
4831;SDS011;2430;51.322;7.864;2023-03-03T06:22:31;24.23;;;9.03;;
4831;SDS011;2430;51.322;7.864;2023-03-03T06:24:58;18.03;;;9.33;;
4831;SDS011;2430;51.322;7.864;2023-03-03T06:27:26;22.77;;;9.87;;
4831;SDS011;2430;51.322;7.864;2023-03-03T06:29:53;16.90;;;10.60;;
4831;SDS011;2430;51.322;7.864;2023-03-03T06:32:19;20.93;;;10.83;;
4831;SDS011;2430;51.322;7.864;2023-03-03T06:34:46;18.83;;;9.80;;
4831;SDS011;2430;51.322;7.864;2023-03-03T06:37:12;13.90;;;9.13;;
4831;SDS011;2430;51.322;7.864;2023-03-03T06:39:39;21.47;;;10.20;;
4831;SDS011;2430;51.322;7.864;2023-03-03T06:42:05;15.73;;;9.33;;
4831;SDS011;2430;51.322;7.864;2023-03-03T06:44:35;16.10;;;9.73;;
4831;SDS011;2430;51.322;7.864;2023-03-03T06:47:01;26.27;;;10.43;;
4831;SDS011;2430;51.322;7.864;2023-03-03T06:49:28;18.10;;;10.13;;
4831;SDS011;2430;51.322;7.864;2023-03-03T06:51:54;17.17;;;9.60;;
4831;SDS011;2430;51.322;7.864;2023-03-03T06:54:23;23.73;;;8.50;;
4831;SDS011;2430;51.322;7.864;2023-03-03T06:56:53;14.67;;;8.87;;
4831;SDS011;2430;51.322;7.864;2023-03-03T06:59:21;18.40;;;10.50;;
4831;SDS011;2430;51.322;7.864;2023-03-03T07:01:50;15.80;;;10.47;;
4831;SDS011;2430;51.322;7.864;2023-03-03T07:04:21;18.80;;;9.33;;
4831;SDS011;2430;51.322;7.864;2023-03-03T07:06:49;18.10;;;10.80;;
4831;SDS011;2430;51.322;7.864;2023-03-03T07:09:17;20.10;;;9.80;;
4831;SDS011;2430;51.322;7.864;2023-03-03T07:11:44;16.77;;;9.47;;
4831;SDS011;2430;51.322;7.864;2023-03-03T07:14:13;19.93;;;9.17;;
4831;SDS011;2430;51.322;7.864;2023-03-03T07:16:41;37.33;;;11.37;;
4831;SDS011;2430;51.322;7.864;2023-03-03T07:19:12;17.60;;;10.00;;
4831;SDS011;2430;51.322;7.864;2023-03-03T07:21:41;14.47;;;8.80;;
4831;SDS011;2430;51.322;7.864;2023-03-03T07:24:12;21.93;;;10.07;;
4831;SDS011;2430;51.322;7.864;2023-03-03T07:26:41;17.60;;;8.70;;
4831;SDS011;2430;51.322;7.864;2023-03-03T07:29:12;19.10;;;9.53;;
4831;SDS011;2430;51.322;7.864;2023-03-03T07:31:41;16.90;;;9.17;;
4831;SDS011;2430;51.322;7.864;2023-03-03T07:34:15;13.70;;;8.73;;
4831;SDS011;2430;51.322;7.864;2023-03-03T07:36:45;19.00;;;10.37;;
4831;SDS011;2430;51.322;7.864;2023-03-03T07:39:27;18.50;;;9.67;;
4831;SDS011;2430;51.322;7.864;2023-03-03T07:41:59;20.20;;;9.43;;
4831;SDS011;2430;51.322;7.864;2023-03-03T07:44:34;15.00;;;9.00;;
4831;SDS011;2430;51.322;7.864;2023-03-03T07:47:11;25.53;;;11.17;;
4831;SDS011;2430;51.322;7.864;2023-03-03T07:49:42;26.50;;;10.60;;
4831;SDS011;2430;51.322;7.864;2023-03-03T07:54:52;17.93;;;8.30;;
4831;SDS011;2430;51.322;7.864;2023-03-03T07:57:20;17.33;;;9.80;;
4831;SDS011;2430;51.322;7.864;2023-03-03T07:59:48;15.87;;;8.07;;
4831;SDS011;2430;51.322;7.864;2023-03-03T08:02:33;11.50;;;7.13;;
4831;SDS011;2430;51.322;7.864;2023-03-03T08:05:14;14.87;;;6.47;;
4831;SDS011;2430;51.322;7.864;2023-03-03T08:07:50;13.37;;;7.60;;
4831;SDS011;2430;51.322;7.864;2023-03-03T08:10:29;12.20;;;8.30;;
4831;SDS011;2430;51.322;7.864;2023-03-03T08:12:57;16.93;;;7.30;;
4831;SDS011;2430;51.322;7.864;2023-03-03T08:15:28;12.10;;;7.03;;
4831;SDS011;2430;51.322;7.864;2023-03-03T08:17:56;11.27;;;6.90;;
4831;SDS011;2430;51.322;7.864;2023-03-03T08:20:40;13.30;;;7.50;;
4831;SDS011;2430;51.322;7.864;2023-03-03T08:23:07;12.70;;;8.13;;
4831;SDS011;2430;51.322;7.864;2023-03-03T08:25:34;11.57;;;6.90;;
4831;SDS011;2430;51.322;7.864;2023-03-03T08:28:01;10.90;;;6.60;;
4831;SDS011;2430;51.322;7.864;2023-03-03T08:30:27;7.13;;;5.60;;
4831;SDS011;2430;51.322;7.864;2023-03-03T08:32:55;12.03;;;7.17;;
4831;SDS011;2430;51.322;7.864;2023-03-03T08:35:22;9.67;;;5.63;;
4831;SDS011;2430;51.322;7.864;2023-03-03T08:37:51;17.80;;;7.80;;
4831;SDS011;2430;51.322;7.864;2023-03-03T08:40:19;10.33;;;5.73;;
4831;SDS011;2430;51.322;7.864;2023-03-03T08:42:48;12.67;;;5.90;;
4831;SDS011;2430;51.322;7.864;2023-03-03T08:45:16;11.57;;;5.90;;
4831;SDS011;2430;51.322;7.864;2023-03-03T08:47:46;11.50;;;6.13;;
4831;SDS011;2430;51.322;7.864;2023-03-03T08:50:15;10.17;;;5.67;;
4831;SDS011;2430;51.322;7.864;2023-03-03T08:52:59;12.10;;;6.13;;
4831;SDS011;2430;51.322;7.864;2023-03-03T08:55:28;13.10;;;7.23;;
4831;SDS011;2430;51.322;7.864;2023-03-03T08:57:57;8.77;;;5.60;;
4831;SDS011;2430;51.322;7.864;2023-03-03T09:00:28;12.03;;;5.77;;
4831;SDS011;2430;51.322;7.864;2023-03-03T09:03:04;13.50;;;7.67;;
4831;SDS011;2430;51.322;7.864;2023-03-03T09:05:32;6.60;;;4.67;;
4831;SDS011;2430;51.322;7.864;2023-03-03T09:08:03;9.63;;;5.83;;
4831;SDS011;2430;51.322;7.864;2023-03-03T09:10:30;10.50;;;6.33;;
4831;SDS011;2430;51.322;7.864;2023-03-03T09:12:59;7.63;;;5.50;;
4831;SDS011;2430;51.322;7.864;2023-03-03T09:15:28;12.93;;;6.10;;
4831;SDS011;2430;51.322;7.864;2023-03-03T09:17:57;9.53;;;5.73;;
4831;SDS011;2430;51.322;7.864;2023-03-03T09:20:33;11.80;;;6.67;;
4831;SDS011;2430;51.322;7.864;2023-03-03T09:23:15;12.33;;;7.13;;
4831;SDS011;2430;51.322;7.864;2023-03-03T09:25:47;13.03;;;6.60;;
4831;SDS011;2430;51.322;7.864;2023-03-03T09:28:18;8.80;;;6.00;;
4831;SDS011;2430;51.322;7.864;2023-03-03T09:30:49;12.83;;;7.00;;
4831;SDS011;2430;51.322;7.864;2023-03-03T09:33:22;12.40;;;6.23;;
4831;SDS011;2430;51.322;7.864;2023-03-03T09:35:49;10.63;;;6.53;;
4831;SDS011;2430;51.322;7.864;2023-03-03T09:38:23;11.03;;;5.90;;
4831;SDS011;2430;51.322;7.864;2023-03-03T09:40:53;13.20;;;7.00;;
4831;SDS011;2430;51.322;7.864;2023-03-03T09:43:22;13.47;;;5.97;;
4831;SDS011;2430;51.322;7.864;2023-03-03T09:45:56;14.37;;;6.13;;
4831;SDS011;2430;51.322;7.864;2023-03-03T09:54:07;15.77;;;7.80;;
4831;SDS011;2430;51.322;7.864;2023-03-03T09:56:38;13.60;;;6.60;;
4831;SDS011;2430;51.322;7.864;2023-03-03T10:01:50;12.20;;;6.47;;
4831;SDS011;2430;51.322;7.864;2023-03-03T10:04:29;16.63;;;7.97;;
4831;SDS011;2430;51.322;7.864;2023-03-03T10:07:00;11.93;;;6.47;;
4831;SDS011;2430;51.322;7.864;2023-03-03T10:09:38;10.20;;;6.80;;
4831;SDS011;2430;51.322;7.864;2023-03-03T10:12:09;9.37;;;6.70;;
4831;SDS011;2430;51.322;7.864;2023-03-03T10:14:47;12.43;;;7.60;;
4831;SDS011;2430;51.322;7.864;2023-03-03T10:20:04;11.07;;;7.23;;
4831;SDS011;2430;51.322;7.864;2023-03-03T10:22:33;10.13;;;6.93;;
4831;SDS011;2430;51.322;7.864;2023-03-03T10:25:11;9.97;;;6.30;;
4831;SDS011;2430;51.322;7.864;2023-03-03T10:27:48;10.70;;;6.83;;
4831;SDS011;2430;51.322;7.864;2023-03-03T10:30:16;12.07;;;7.97;;
4831;SDS011;2430;51.322;7.864;2023-03-03T10:32:47;12.20;;;7.10;;
4831;SDS011;2430;51.322;7.864;2023-03-03T10:35:23;12.17;;;7.10;;
4831;SDS011;2430;51.322;7.864;2023-03-03T10:37:57;14.43;;;7.93;;
4831;SDS011;2430;51.322;7.864;2023-03-03T10:40:30;14.10;;;7.37;;
4831;SDS011;2430;51.322;7.864;2023-03-03T10:43:07;12.27;;;6.77;;
4831;SDS011;2430;51.322;7.864;2023-03-03T10:45:44;19.40;;;7.10;;
4831;SDS011;2430;51.322;7.864;2023-03-03T10:51:03;14.13;;;6.50;;
4831;SDS011;2430;51.322;7.864;2023-03-03T10:53:37;14.23;;;7.80;;
4831;SDS011;2430;51.322;7.864;2023-03-03T10:56:16;13.17;;;6.97;;
4831;SDS011;2430;51.322;7.864;2023-03-03T10:58:53;12.93;;;7.77;;
4831;SDS011;2430;51.322;7.864;2023-03-03T11:01:28;12.07;;;6.80;;
4831;SDS011;2430;51.322;7.864;2023-03-03T11:04:14;17.53;;;7.13;;
4831;SDS011;2430;51.322;7.864;2023-03-03T11:06:46;11.57;;;7.10;;
4831;SDS011;2430;51.322;7.864;2023-03-03T11:09:22;10.17;;;6.43;;
4831;SDS011;2430;51.322;7.864;2023-03-03T11:11:55;17.33;;;6.20;;
4831;SDS011;2430;51.322;7.864;2023-03-03T11:14:26;13.53;;;6.27;;
4831;SDS011;2430;51.322;7.864;2023-03-03T11:16:57;9.57;;;6.37;;
4831;SDS011;2430;51.322;7.864;2023-03-03T11:19:29;10.23;;;5.97;;
4831;SDS011;2430;51.322;7.864;2023-03-03T11:21:59;13.67;;;6.00;;
4831;SDS011;2430;51.322;7.864;2023-03-03T11:24:35;10.50;;;6.73;;
4831;SDS011;2430;51.322;7.864;2023-03-03T11:29:49;9.20;;;5.90;;
4831;SDS011;2430;51.322;7.864;2023-03-03T11:32:20;8.80;;;5.57;;
4831;SDS011;2430;51.322;7.864;2023-03-03T11:34:55;14.50;;;7.73;;
4831;SDS011;2430;51.322;7.864;2023-03-03T11:37:25;12.37;;;5.60;;
4831;SDS011;2430;51.322;7.864;2023-03-03T11:39:56;8.73;;;6.13;;
4831;SDS011;2430;51.322;7.864;2023-03-03T11:42:31;12.97;;;5.97;;
4831;SDS011;2430;51.322;7.864;2023-03-03T11:45:04;7.30;;;4.53;;
4831;SDS011;2430;51.322;7.864;2023-03-03T11:47:37;8.93;;;5.40;;
4831;SDS011;2430;51.322;7.864;2023-03-03T11:50:07;7.60;;;5.07;;
4831;SDS011;2430;51.322;7.864;2023-03-03T11:52:38;7.13;;;5.30;;
4831;SDS011;2430;51.322;7.864;2023-03-03T11:55:11;7.10;;;4.87;;
4831;SDS011;2430;51.322;7.864;2023-03-03T11:57:39;9.23;;;5.63;;
4831;SDS011;2430;51.322;7.864;2023-03-03T12:02:46;11.27;;;6.30;;
4831;SDS011;2430;51.322;7.864;2023-03-03T12:05:19;12.53;;;5.57;;
4831;SDS011;2430;51.322;7.864;2023-03-03T12:07:51;9.90;;;6.37;;
4831;SDS011;2430;51.322;7.864;2023-03-03T12:10:22;9.67;;;5.27;;
4831;SDS011;2430;51.322;7.864;2023-03-03T12:12:50;5.83;;;5.00;;
4831;SDS011;2430;51.322;7.864;2023-03-03T12:15:22;6.97;;;5.10;;
4831;SDS011;2430;51.322;7.864;2023-03-03T12:20:36;10.43;;;5.83;;
4831;SDS011;2430;51.322;7.864;2023-03-03T12:23:09;11.63;;;5.70;;
4831;SDS011;2430;51.322;7.864;2023-03-03T12:25:38;15.07;;;8.20;;
4831;SDS011;2430;51.322;7.864;2023-03-03T12:28:07;17.57;;;7.90;;
4831;SDS011;2430;51.322;7.864;2023-03-03T12:30:39;8.87;;;5.23;;
4831;SDS011;2430;51.322;7.864;2023-03-03T12:33:19;8.90;;;5.27;;
4831;SDS011;2430;51.322;7.864;2023-03-03T12:35:54;12.20;;;5.60;;
4831;SDS011;2430;51.322;7.864;2023-03-03T12:38:28;10.97;;;5.43;;
4831;SDS011;2430;51.322;7.864;2023-03-03T12:40:59;15.40;;;5.27;;
4831;SDS011;2430;51.322;7.864;2023-03-03T12:43:41;11.40;;;5.17;;
4831;SDS011;2430;51.322;7.864;2023-03-03T12:46:12;10.00;;;4.97;;
4831;SDS011;2430;51.322;7.864;2023-03-03T12:48:42;11.20;;;4.70;;
4831;SDS011;2430;51.322;7.864;2023-03-03T12:51:13;10.67;;;5.77;;
4831;SDS011;2430;51.322;7.864;2023-03-03T12:53:47;8.57;;;5.20;;
4831;SDS011;2430;51.322;7.864;2023-03-03T12:56:17;12.40;;;6.60;;
4831;SDS011;2430;51.322;7.864;2023-03-03T12:58:49;10.17;;;6.40;;
4831;SDS011;2430;51.322;7.864;2023-03-03T13:01:22;9.70;;;5.97;;
4831;SDS011;2430;51.322;7.864;2023-03-03T13:03:55;15.43;;;6.00;;
4831;SDS011;2430;51.322;7.864;2023-03-03T13:06:27;7.70;;;4.30;;
4831;SDS011;2430;51.322;7.864;2023-03-03T13:09:01;14.30;;;5.40;;
4831;SDS011;2430;51.322;7.864;2023-03-03T13:11:41;10.30;;;5.70;;
4831;SDS011;2430;51.322;7.864;2023-03-03T13:14:14;9.27;;;5.37;;
4831;SDS011;2430;51.322;7.864;2023-03-03T13:16:42;13.03;;;4.73;;
4831;SDS011;2430;51.322;7.864;2023-03-03T13:19:14;11.47;;;5.60;;
4831;SDS011;2430;51.322;7.864;2023-03-03T13:21:59;12.77;;;6.57;;
4831;SDS011;2430;51.322;7.864;2023-03-03T13:24:36;6.37;;;4.90;;
4831;SDS011;2430;51.322;7.864;2023-03-03T13:27:25;8.30;;;4.40;;
4831;SDS011;2430;51.322;7.864;2023-03-03T13:30:00;10.97;;;5.30;;
4831;SDS011;2430;51.322;7.864;2023-03-03T13:32:36;10.57;;;6.37;;
4831;SDS011;2430;51.322;7.864;2023-03-03T13:35:27;9.20;;;5.00;;
4831;SDS011;2430;51.322;7.864;2023-03-03T13:38:01;14.57;;;8.13;;
4831;SDS011;2430;51.322;7.864;2023-03-03T13:40:49;8.23;;;6.00;;
4831;SDS011;2430;51.322;7.864;2023-03-03T13:43:16;14.23;;;6.70;;
4831;SDS011;2430;51.322;7.864;2023-03-03T13:45:58;10.63;;;6.67;;
4831;SDS011;2430;51.322;7.864;2023-03-03T13:48:39;11.73;;;6.80;;
4831;SDS011;2430;51.322;7.864;2023-03-03T13:51:13;15.13;;;7.23;;
4831;SDS011;2430;51.322;7.864;2023-03-03T13:53:45;12.63;;;6.73;;
4831;SDS011;2430;51.322;7.864;2023-03-03T13:56:17;14.10;;;6.77;;
4831;SDS011;2430;51.322;7.864;2023-03-03T13:58:47;13.10;;;6.40;;
4831;SDS011;2430;51.322;7.864;2023-03-03T14:01:19;16.83;;;6.67;;
4831;SDS011;2430;51.322;7.864;2023-03-03T14:03:52;14.37;;;6.43;;
4831;SDS011;2430;51.322;7.864;2023-03-03T14:06:21;10.73;;;6.23;;
4831;SDS011;2430;51.322;7.864;2023-03-03T14:08:59;10.07;;;6.50;;
4831;SDS011;2430;51.322;7.864;2023-03-03T14:11:32;14.60;;;7.10;;
4831;SDS011;2430;51.322;7.864;2023-03-03T14:14:03;13.30;;;6.83;;
4831;SDS011;2430;51.322;7.864;2023-03-03T14:16:38;15.33;;;7.13;;
4831;SDS011;2430;51.322;7.864;2023-03-03T14:19:09;17.73;;;6.07;;
4831;SDS011;2430;51.322;7.864;2023-03-03T14:21:37;16.87;;;8.70;;
4831;SDS011;2430;51.322;7.864;2023-03-03T14:24:10;10.17;;;6.53;;
4831;SDS011;2430;51.322;7.864;2023-03-03T14:26:47;12.67;;;6.83;;
4831;SDS011;2430;51.322;7.864;2023-03-03T14:29:21;13.77;;;6.90;;
4831;SDS011;2430;51.322;7.864;2023-03-03T14:31:48;15.87;;;6.23;;
4831;SDS011;2430;51.322;7.864;2023-03-03T14:34:25;21.40;;;7.77;;
4831;SDS011;2430;51.322;7.864;2023-03-03T14:36:59;21.30;;;7.90;;
4831;SDS011;2430;51.322;7.864;2023-03-03T14:39:29;15.40;;;6.90;;
4831;SDS011;2430;51.322;7.864;2023-03-03T14:41:57;11.23;;;6.50;;
4831;SDS011;2430;51.322;7.864;2023-03-03T14:44:25;13.13;;;6.20;;
4831;SDS011;2430;51.322;7.864;2023-03-03T14:49:37;16.30;;;7.37;;
4831;SDS011;2430;51.322;7.864;2023-03-03T14:52:08;11.07;;;6.00;;
4831;SDS011;2430;51.322;7.864;2023-03-03T14:54:38;12.53;;;5.90;;
4831;SDS011;2430;51.322;7.864;2023-03-03T14:57:08;14.87;;;6.37;;
4831;SDS011;2430;51.322;7.864;2023-03-03T14:59:36;20.63;;;6.53;;
4831;SDS011;2430;51.322;7.864;2023-03-03T15:02:22;16.70;;;7.13;;
4831;SDS011;2430;51.322;7.864;2023-03-03T15:04:52;12.23;;;5.17;;
4831;SDS011;2430;51.322;7.864;2023-03-03T15:07:34;12.67;;;6.97;;
4831;SDS011;2430;51.322;7.864;2023-03-03T15:10:03;12.40;;;5.80;;
4831;SDS011;2430;51.322;7.864;2023-03-03T15:12:33;16.73;;;6.67;;
4831;SDS011;2430;51.322;7.864;2023-03-03T15:15:01;15.70;;;5.30;;
4831;SDS011;2430;51.322;7.864;2023-03-03T15:17:33;10.90;;;4.67;;
4831;SDS011;2430;51.322;7.864;2023-03-03T15:20:12;10.20;;;5.20;;
4831;SDS011;2430;51.322;7.864;2023-03-03T15:22:47;9.60;;;4.10;;
4831;SDS011;2430;51.322;7.864;2023-03-03T15:25:18;10.03;;;5.90;;
4831;SDS011;2430;51.322;7.864;2023-03-03T15:27:47;14.20;;;6.30;;
4831;SDS011;2430;51.322;7.864;2023-03-03T15:30:19;13.90;;;6.63;;
4831;SDS011;2430;51.322;7.864;2023-03-03T15:32:48;9.97;;;6.90;;
4831;SDS011;2430;51.322;7.864;2023-03-03T15:35:20;11.23;;;5.23;;
4831;SDS011;2430;51.322;7.864;2023-03-03T15:37:51;12.03;;;6.63;;
4831;SDS011;2430;51.322;7.864;2023-03-03T15:40:24;13.10;;;5.20;;
4831;SDS011;2430;51.322;7.864;2023-03-03T15:42:54;8.80;;;5.07;;
4831;SDS011;2430;51.322;7.864;2023-03-03T15:45:24;14.60;;;5.80;;